createdAt,value
2022-12-04T08:55:56.956Z,101740.16
2022-12-04T08:58:25.068Z,101734.13
2022-12-04T09:00:53.439Z,101735.50
2022-12-04T09:06:55.651Z,101743.66
2022-12-04T09:09:32.155Z,101742.53
2022-12-04T09:12:06.470Z,101740.03
2022-12-04T09:14:37.389Z,101753.19
2022-12-04T09:17:05.273Z,101745.16
2022-12-04T09:19:35.377Z,101742.22
2022-12-04T09:22:03.780Z,101736.84
2022-12-04T09:24:32.258Z,101731.44
2022-12-04T09:27:00.429Z,101728.41
2022-12-04T09:29:29.809Z,101731.47
2022-12-04T09:31:57.701Z,101735.38
2022-12-04T09:34:36.552Z,101740.56
2022-12-04T09:37:05.148Z,101736.44
2022-12-04T09:39:33.559Z,101733.19
2022-12-04T09:42:07.825Z,101732.75
2022-12-04T09:44:39.451Z,101724.53
2022-12-04T09:47:10.336Z,101724.31
2022-12-04T09:49:39.696Z,101718.69
2022-12-04T09:52:08.949Z,101716.72
2022-12-04T09:54:39.042Z,101715.00
2022-12-04T09:57:07.946Z,101712.19
2022-12-04T09:59:37.426Z,101711.31
2022-12-04T10:02:11.681Z,101709.38
2022-12-04T10:04:39.843Z,101704.75
2022-12-04T10:07:09.963Z,101693.94
2022-12-04T10:09:39.693Z,101691.13
2022-12-04T10:12:09.904Z,101689.38
2022-12-04T10:14:49.934Z,101689.50
2022-12-04T10:17:22.243Z,101680.66
2022-12-04T10:19:54.266Z,101676.31
2022-12-04T10:22:24.669Z,101672.03
2022-12-04T10:24:53.288Z,101673.97
2022-12-04T10:27:23.022Z,101673.22
2022-12-04T10:29:57.331Z,101677.88
2022-12-04T10:32:28.217Z,101683.50
2022-12-04T10:34:57.672Z,101683.63
2022-12-04T10:37:26.199Z,101680.25
2022-12-04T10:39:56.014Z,101686.53
2022-12-04T10:42:28.525Z,101683.94
2022-12-04T10:44:58.507Z,101675.09
2022-12-04T10:47:26.866Z,101678.75
2022-12-04T10:49:57.838Z,101672.50
2022-12-04T10:52:39.648Z,101669.03
2022-12-04T10:55:08.304Z,101675.31
2022-12-04T10:57:36.872Z,101667.34
2022-12-04T11:00:07.403Z,101658.47
2022-12-04T11:02:36.321Z,101655.88
2022-12-04T11:05:05.795Z,101644.22
2022-12-04T11:07:36.115Z,101651.47
2022-12-04T11:10:05.074Z,101653.28
2022-12-04T11:12:32.944Z,101649.84
2022-12-04T11:15:01.232Z,101648.97
2022-12-04T11:17:32.491Z,101646.41
2022-12-04T11:20:00.622Z,101644.53
2022-12-04T11:22:28.582Z,101642.91
2022-12-04T11:24:57.714Z,101642.91
2022-12-04T11:27:27.288Z,101641.22
2022-12-04T11:29:55.370Z,101638.63
2022-12-04T11:32:23.802Z,101632.47
2022-12-04T11:34:53.400Z,101640.59
2022-12-04T11:37:22.082Z,101642.50
2022-12-04T11:39:49.847Z,101634.53
2022-12-04T11:42:17.862Z,101625.66
2022-12-04T11:44:55.844Z,101618.50
2022-12-04T11:47:27.587Z,101605.13
2022-12-04T11:50:06.132Z,101627.59
2022-12-04T11:52:38.035Z,101628.69
2022-12-04T11:55:08.536Z,101623.28
2022-12-04T11:57:38.238Z,101614.44
2022-12-04T12:00:12.993Z,101619.84
2022-12-04T12:02:55.903Z,101604.72
2022-12-04T12:05:40.930Z,101611.09
2022-12-04T12:08:10.472Z,101612.91
2022-12-04T12:10:44.621Z,101613.16
2022-12-04T12:13:14.191Z,101600.66
2022-12-04T12:15:43.317Z,101612.28
2022-12-04T12:18:19.146Z,101615.09
2022-12-04T12:20:52.636Z,101602.69
2022-12-04T12:23:25.475Z,101598.16
2022-12-04T12:25:55.582Z,101606.25
2022-12-04T12:28:28.284Z,101606.25
2022-12-04T12:31:05.742Z,101601.94
2022-12-04T12:33:35.601Z,101609.06
2022-12-04T12:36:06.164Z,101613.78
2022-12-04T12:38:34.870Z,101610.13
2022-12-04T12:41:03.221Z,101606.47
2022-12-04T12:43:31.867Z,101611.00
2022-12-04T12:46:01.292Z,101613.78
2022-12-04T12:48:30.617Z,101609.50
2022-12-04T12:51:22.250Z,101618.56
2022-12-04T12:53:51.303Z,101616.81
2022-12-04T12:56:30.620Z,101610.56
2022-12-04T12:58:58.809Z,101600.88
2022-12-04T13:01:29.260Z,101610.78
2022-12-04T13:03:58.624Z,101616.19
2022-12-04T13:06:27.681Z,101613.38
2022-12-04T13:09:00.803Z,101612.53
2022-12-04T13:11:28.900Z,101600.00
2022-12-04T13:13:57.661Z,101605.38
2022-12-04T13:16:26.670Z,101592.91
2022-12-04T13:18:56.457Z,101592.00
2022-12-04T13:21:29.518Z,101595.69
2022-12-04T13:24:01.841Z,101594.81
2022-12-04T13:26:34.089Z,101581.44
2022-12-04T13:29:08.614Z,101566.25
2022-12-04T13:31:38.526Z,101586.59
2022-12-04T13:34:24.352Z,101578.38
2022-12-04T13:37:00.824Z,101572.75
2022-12-04T13:39:37.174Z,101568.69
2022-12-04T13:42:05.592Z,101576.50
2022-12-04T13:44:33.904Z,101565.88
2022-12-04T13:47:02.545Z,101562.59
2022-12-04T13:49:31.315Z,101554.75
2022-12-04T13:52:00.153Z,101548.88
2022-12-04T13:54:29.224Z,101541.31
2022-12-04T13:57:11.062Z,101549.91
2022-12-04T13:59:39.093Z,101542.31
2022-12-04T14:02:21.373Z,101541.09
2022-12-04T14:04:53.663Z,101549.59
2022-12-04T14:07:24.868Z,101548.28
2022-12-04T14:09:53.829Z,101558.59
2022-12-04T14:12:25.222Z,101556.44
2022-12-04T14:14:54.662Z,101546.09
2022-12-04T14:17:25.698Z,101540.69
2022-12-04T14:19:53.646Z,101540.34
2022-12-04T14:22:29.391Z,101553.34
2022-12-04T14:25:06.236Z,101549.03
2022-12-04T14:27:36.312Z,101542.78
2022-12-04T14:30:09.338Z,101550.03
2022-12-04T14:32:37.429Z,101545.63
2022-12-04T14:35:05.534Z,101543.03
2022-12-04T14:37:35.058Z,101523.34
2022-12-04T14:40:03.192Z,101540.31
2022-12-04T14:42:32.863Z,101537.63
2022-12-04T14:45:03.488Z,101538.47
2022-12-04T14:47:37.946Z,101537.63
2022-12-04T14:53:28.365Z,101540.56
2022-12-04T14:56:07.080Z,101543.38
2022-12-04T14:58:39.148Z,101535.28
2022-12-04T15:01:15.204Z,101537.97
2022-12-04T15:03:44.445Z,101530.09
2022-12-04T15:06:15.871Z,101522.13
2022-12-04T15:08:49.270Z,101525.19
2022-12-04T15:11:35.527Z,101537.69
2022-12-04T15:14:05.409Z,101523.41
2022-12-04T15:16:34.549Z,101541.59
2022-12-04T15:19:02.489Z,101532.75
2022-12-04T15:21:31.815Z,101532.75
2022-12-04T15:23:59.621Z,101539.88
2022-12-04T15:26:28.424Z,101543.63
2022-12-04T15:28:57.005Z,101559.91
2022-12-04T15:31:25.740Z,101553.06
2022-12-04T15:33:56.768Z,101574.66
2022-12-04T15:36:26.945Z,101574.44
2022-12-04T15:38:54.917Z,101563.13
2022-12-04T15:41:29.644Z,101580.16
2022-12-04T15:43:57.878Z,101568.78
2022-12-04T15:46:26.835Z,101571.09
2022-12-04T15:49:06.622Z,101568.13
2022-12-04T15:51:34.586Z,101569.78
2022-12-04T15:54:03.094Z,101566.28
2022-12-04T15:56:32.924Z,101574.22
2022-12-04T15:59:01.681Z,101562.63
2022-12-04T16:01:39.635Z,101561.19
2022-12-04T16:04:20.802Z,101562.81
2022-12-04T16:06:49.031Z,101566.00
2022-12-04T16:09:21.107Z,101575.50
2022-12-04T16:11:57.508Z,101559.88
2022-12-04T16:14:25.547Z,101550.78
2022-12-04T16:16:53.468Z,101559.88
2022-12-04T16:23:08.327Z,101571.69
2022-12-04T16:25:36.081Z,101565.28
2022-12-04T16:28:04.041Z,101556.44
2022-12-04T16:30:32.997Z,101558.16
2022-12-04T16:33:01.115Z,101551.03
2022-12-04T16:35:31.222Z,101556.69
2022-12-04T16:37:59.506Z,101548.69
2022-12-04T16:40:29.517Z,101549.53
2022-12-04T16:42:57.402Z,101551.53
2022-12-04T16:45:26.566Z,101545.38
2022-12-04T16:47:54.526Z,101550.03
2022-12-04T16:50:22.498Z,101550.91
2022-12-04T16:52:50.325Z,101542.91
2022-12-04T16:55:19.651Z,101546.59
2022-12-04T16:57:51.634Z,101551.28
2022-12-04T17:00:20.141Z,101553.97
2022-12-04T17:02:48.158Z,101545.09
2022-12-04T17:05:19.100Z,101555.91
2022-12-04T17:07:47.234Z,101548.56
2022-12-04T17:10:20.231Z,101555.69
2022-12-04T17:12:53.680Z,101547.81
2022-12-04T17:15:21.558Z,101549.03
2022-12-04T17:17:49.488Z,101535.03
2022-12-04T17:20:18.043Z,101541.28
2022-12-04T17:22:46.198Z,101547.66
2022-12-04T17:25:14.374Z,101547.78
2022-12-04T17:27:42.113Z,101540.69
2022-12-04T17:30:12.086Z,101537.22
2022-12-04T17:32:39.919Z,101536.25
2022-12-04T17:35:08.127Z,101541.78
2022-12-04T17:37:35.993Z,101539.19
2022-12-04T17:40:03.808Z,101536.59
2022-12-04T17:42:31.680Z,101542.84
2022-12-04T17:44:59.620Z,101534.03
2022-12-04T17:47:32.771Z,101532.28
2022-12-04T17:50:00.903Z,101545.88
2022-12-04T17:52:29.284Z,101536.19
2022-12-04T17:54:56.977Z,101530.78
2022-12-04T17:57:24.710Z,101534.47
2022-12-04T17:59:52.306Z,101530.06
2022-12-04T18:02:19.895Z,101516.78
2022-12-04T18:04:48.855Z,101535.59
2022-12-04T18:07:16.751Z,101523.03
2022-12-04T18:09:44.523Z,101530.41
2022-12-04T18:12:12.213Z,101527.72
2022-12-04T18:14:39.958Z,101529.66
2022-12-04T18:17:07.594Z,101530.66
2022-12-04T18:19:35.256Z,101531.50
2022-12-04T18:22:04.345Z,101535.41
2022-12-04T18:24:32.038Z,101530.00
2022-12-04T18:26:59.808Z,101522.91
2022-12-04T18:29:27.628Z,101530.88
2022-12-04T18:31:55.367Z,101532.59
2022-12-04T18:34:23.187Z,101528.06
2022-12-04T18:36:50.857Z,101527.19
2022-12-04T18:39:20.556Z,101524.59
2022-12-04T18:41:48.364Z,101535.41
2022-12-04T18:44:16.055Z,101523.88
2022-12-04T18:46:43.747Z,101526.81
2022-12-04T18:49:11.564Z,101528.66
2022-12-04T18:51:39.737Z,101529.63
2022-12-04T18:54:07.947Z,101528.78
2022-12-04T18:56:36.944Z,101529.75
2022-12-04T18:59:05.007Z,101530.75
2022-12-04T19:01:32.767Z,101533.56
2022-12-04T19:04:01.084Z,101539.09
2022-12-04T19:06:29.929Z,101540.06
2022-12-04T19:08:59.169Z,101538.31
2022-12-04T19:11:26.830Z,101538.31
2022-12-04T19:13:55.790Z,101543.72
2022-12-04T19:16:23.736Z,101546.53
2022-12-04T19:18:51.342Z,101544.84
2022-12-04T19:21:19.078Z,101536.84
2022-12-04T19:23:49.840Z,101545.91
2022-12-04T19:26:17.852Z,101549.59
2022-12-04T19:28:45.500Z,101547.78
2022-12-04T19:31:17.736Z,101538.78
2022-12-04T19:33:45.454Z,101542.47
2022-12-04T19:36:13.360Z,101535.34
2022-12-04T19:38:40.916Z,101542.72
2022-12-04T19:41:10.119Z,101540.97
2022-12-04T19:43:37.890Z,101546.38
2022-12-04T19:46:05.674Z,101553.75
2022-12-04T19:48:34.686Z,101543.81
2022-12-04T19:51:05.358Z,101548.34
2022-12-04T19:53:36.379Z,101552.03
2022-12-04T19:56:08.903Z,101557.41
2022-12-04T19:58:36.522Z,101551.16
2022-12-04T20:01:04.225Z,101547.72
2022-12-04T20:03:31.877Z,101546.00
2022-12-04T20:06:03.826Z,101545.16
2022-12-04T20:08:31.659Z,101538.84
2022-12-04T20:11:02.648Z,101533.44
2022-12-04T20:13:30.627Z,101528.06
2022-12-04T20:16:01.860Z,101520.06
2022-12-04T20:18:29.669Z,101530.03
2022-12-04T20:20:57.290Z,101526.59
2022-12-04T20:23:26.231Z,101529.28
2022-12-04T20:25:53.777Z,101527.44
2022-12-04T20:28:21.357Z,101518.59
2022-12-04T20:30:49.827Z,101523.00
2022-12-04T20:33:17.478Z,101522.25
2022-12-04T20:35:45.051Z,101515.13
2022-12-04T20:38:13.399Z,101515.13
2022-12-04T20:40:42.336Z,101517.81
2022-12-04T20:43:09.877Z,101518.81
2022-12-04T20:45:37.447Z,101512.56
2022-12-04T20:48:05.170Z,101517.09
2022-12-04T20:50:33.150Z,101513.53
2022-12-04T20:53:00.992Z,101516.25
2022-12-04T20:55:28.579Z,101514.50
2022-12-04T20:57:57.992Z,101519.06
2022-12-04T21:00:25.787Z,101515.50
2022-12-04T21:02:53.513Z,101516.47
2022-12-04T21:05:21.124Z,101521.88
2022-12-04T21:07:48.718Z,101526.41
2022-12-04T21:10:16.487Z,101512.03
2022-12-04T21:12:57.967Z,101508.47
2022-12-04T21:15:44.175Z,101521.13
2022-12-04T21:18:11.754Z,101512.16
2022-12-04T21:20:39.475Z,101509.69
2022-12-04T21:23:07.073Z,101504.16
2022-12-04T21:25:34.635Z,101514.00
2022-12-04T21:28:02.737Z,101506.97
2022-12-04T21:30:31.791Z,101512.25
2022-12-04T21:32:59.659Z,101505.28
2022-12-04T21:35:28.138Z,101510.69
2022-12-04T21:37:56.634Z,101503.53
2022-12-04T21:40:24.224Z,101508.94
2022-12-04T21:42:51.774Z,101498.16
2022-12-04T21:45:19.368Z,101493.72
2022-12-04T21:47:48.377Z,101492.97
2022-12-04T21:50:15.946Z,101494.72
2022-12-04T21:52:43.675Z,101499.22
2022-12-04T21:55:11.314Z,101491.25
2022-12-04T21:57:38.916Z,101493.94
2022-12-04T22:00:07.650Z,101491.25
2022-12-04T22:02:36.287Z,101493.94
2022-12-04T22:05:05.815Z,101485.84
2022-12-04T22:07:33.444Z,101479.69
2022-12-04T22:10:05.456Z,101483.28
2022-12-04T22:12:51.883Z,101481.56
2022-12-04T22:15:19.581Z,101489.66
2022-12-04T22:17:47.185Z,101478.97
2022-12-04T22:20:16.242Z,101476.28
2022-12-04T22:22:43.842Z,101474.53
2022-12-04T22:25:11.443Z,101478.13
2022-12-04T22:27:39.020Z,101484.47
2022-12-04T22:30:08.028Z,101475.53
2022-12-04T22:32:35.673Z,101487.91
2022-12-04T22:35:03.545Z,101478.13
2022-12-04T22:37:32.481Z,101478.13
2022-12-04T22:40:00.244Z,101476.28
2022-12-04T22:42:27.987Z,101473.56
2022-12-04T22:44:55.557Z,101466.44
2022-12-04T22:47:23.143Z,101471.84
2022-12-04T22:49:50.735Z,101477.25
2022-12-04T22:52:19.107Z,101465.47
2022-12-04T22:54:48.249Z,101466.44
2022-12-04T22:57:15.861Z,101458.34
2022-12-04T22:59:43.437Z,101466.44
2022-12-04T23:02:10.990Z,101462.03
2022-12-04T23:04:38.667Z,101459.34
2022-12-04T23:07:06.262Z,101451.34
2022-12-04T23:09:33.867Z,101462.78
2022-12-04T23:12:03.187Z,101459.09
2022-12-04T23:14:30.818Z,101464.50
2022-12-04T23:16:58.563Z,101462.53
2022-12-04T23:19:26.159Z,101458.84
2022-12-04T23:21:57.182Z,101461.53
2022-12-04T23:24:25.134Z,101464.25
2022-12-04T23:26:52.692Z,101464.25
2022-12-04T23:29:51.985Z,101464.25
2022-12-04T23:35:01.304Z,101460.56
2022-12-04T23:37:28.877Z,101465.97
2022-12-04T23:39:56.837Z,101465.13
2022-12-04T23:42:24.710Z,101446.34
2022-12-04T23:44:53.702Z,101456.28
2022-12-04T23:47:21.414Z,101452.59
2022-12-04T23:49:49.325Z,101440.94
2022-12-04T23:52:17.137Z,101440.94
2022-12-04T23:54:44.951Z,101446.34
2022-12-04T23:57:12.579Z,101442.41
2022-12-04T23:59:40.270Z,101448.47
